International Virtual Aviation Organisation

Russian Federation and Kazakhstan MCD

 

Карточка аэропорта UHHH

Внимание!
Информация на этой странице в стадии наполнения.
Если вы не увидели какой-то информации, или заметили неточность - пожалуйста сообщите нам!
Спасибо!
Команда RU-STAFF
Название аэропортаНовый
Название аэропорта (англ.)Novy
Превышение244 ft. (74.4 m.)
Координаты48°31.68', 135°11.4'
Высота перехода900m
Эшелон переходаFL050
Коды ответчика0201-0277
Зона ОрВДХабаровск РПИ (UHHH)
Данные METARUHHH 191630Z 03003MPS 6000 SCT001 18/18 Q1012 R23L/090060 NOSIG RMK QBB050 QFE752/1003
Проноз погоды (TAF)UHHH 191347Z 1915/2021 03003MPS 0400 FG VV002 BECMG 1920/1922 1500 -SHRA BR BKN003 BKN020CB TEMPO 1922/1924 VRB01MPS 0400 SHRA FG BKN002 BKN020CB FM200200 05003MPS 9999 -SHRA SCT011 BKN020CB TEMPO 2002/2010 VRB07MPS 3100 -TSRA BKN006 OVC015CB
NOTAMshow/hide NOTAM
AWOS   TABLE

Информация о ВПП

ВПП Длина ВПП (м.) Покрытие Курс ВПП Частота ILS
05R4000Асфальтобетон53110.3
05L3500Асфальтобетон53 
23R3500Асфальтобетон233 
23L4000Асфальтобетон233111.15

Диспетчерские позиции

Позывной Наименование органа УВД Частота
UHHH_APPХабаровск-Подход125.2
UHHH_R_APPХабаровск-Круг120.3
UHHH_TWRХабаровск-Старт/Посадка119.3
UHHH_GNDХабаровск Руление121.8



Спутниковое изображение